Stockton Metropolitan Airport
KSCK : now visible

Airfield :











YOU CAN JOIN US ON...

 
LOGIN :

Register | Disclaimer

   EN    FR    IT 

 









Legend :    VFR   Marginal VFR   IFR   Intensive IFR   Very Intensive IFR
Visi :
Ceiling :
>= 8 km
>= 3000ft
5 to 8 km
1000 to 3000 ft
1500m to 5 km
500 to 1000 ft
800 to 1500m
200 to 500 ft
< 800m
< 200 ft
Symbols :   Thunderstorms  Fog  Heavy snow  Heavy precipitations  Wind > 20 kt







- Airport Elevation : 33 ft


KSCK - Stockton Metropolitan

CURRENT METAR :
  • 200655Z AUTO 27012KT 10SM CLR 15/10 A2983 RMK AO2 SLP101 T01500100

EXPIRED METARs :
  • 200555Z AUTO 27008KT 10SM CLR 16/12 A2983 RMK AO2 SLP102 T01610117 10283 20156 51011
  • 200455Z AUTO 28009KT 10SM CLR 18/13 A2983 RMK AO2 SLP101 T01830128

TAF KSCK
Valid from the 20 at 06:00 until the 21 at 06:00 UTC


200520Z 2006/2106 29009KT P6SM SKC
FM201500 26011G17KT P6SM BKN100
KZOA FIR / North America



MET'MAP, your aeronautical weather chart ! - Copyright ORBIFLY December 2007 - Disclaimer

ORBIFLY MET'MAP TEAM :

Programming & Development : Alexandra Zaïnal
Concept & Development : Baudouin d'Aumeries
Co-Development & Prog : Marc-Olivier Méhu
Technical & hardware support : Manuel Goepfert

Contact : metmap@orbifly.com




SOURCES & CREDITS :

   NOAA       Earth
Advisory